KFPR/FPR METAR and TAF weather

Enter ICAO airport designator
Station Type Date Time Source
KFPR METAR 2023/02/05 23:53 UTC NOAA

KFPR 052353Z 00000KT 10SM CLR 18/16 A3009 RMK AO2 SLP190 60003 T01780161 10228 20178 51022


Station Type Date Time Source
KFPR Decoded METAR 2023/02/05 23:53 UTC NOAA

FORT PIERCE ST LUCIE, FL, United States (KFPR) 27-30N 080-23W 13M
Feb 05, 2023 - 06:53 PM EST / 2023.02.05 2353 UTC
Wind: Calm:0
Visibility: 10 mile(s):0
Sky conditions: clear
Temperature: 64.0 F (17.8 C)
Dew Point: 61.0 F (16.1 C)
Relative Humidity: 89%
Pressure (altimeter): 30.09 in. Hg (1018 hPa)
Pressure tendency: 0.06 inches (2.2 hPa) higher than three hours ago
ob: KFPR 052353Z 00000KT 10SM CLR 18/16 A3009 RMK AO2 SLP190 60003 T01780161 10228 20178 51022
cycle: 0

Station Type Date Time Source
KFPR TAF 2023/02/05 19:51 UTC NOAA

TAF
AMD KFPR 051848Z 0519/0618 32012G18KT P6SM -RA SCT006 OVC020
TEMPO 0519/0520 2SM +SHRA BKN006 OVC035
FM052100 33009KT P6SM VCSH SCT015 BKN035
FM060100 36006KT P6SM BKN050
FM061400 36008KT P6SM SCT040

Example: see airport list